createdAt,value
2022-12-08T00:00:49.407Z,5.43
2022-12-08T00:03:16.881Z,6.80
2022-12-08T00:05:45.396Z,7.13
2022-12-08T00:08:12.801Z,6.55
2022-12-08T00:10:49.659Z,6.88
2022-12-08T00:13:17.390Z,6.68
2022-12-08T00:15:45.047Z,6.97
2022-12-08T00:18:14.561Z,8.15
2022-12-08T00:20:42.239Z,7.57
2022-12-08T00:23:09.592Z,8.82
2022-12-08T00:25:37.216Z,7.22
2022-12-08T00:28:04.614Z,5.78
2022-12-08T00:30:32.231Z,6.53
2022-12-08T00:32:59.621Z,6.72
2022-12-08T00:35:27.267Z,5.68
2022-12-08T00:38:00.484Z,5.82
2022-12-08T00:40:28.652Z,5.82
2022-12-08T00:42:55.982Z,6.38
2022-12-08T00:45:23.657Z,6.05
2022-12-08T00:47:51.015Z,4.90
2022-12-08T00:50:19.748Z,5.40
2022-12-08T00:52:47.186Z,5.72
2022-12-08T00:55:14.759Z,5.07
2022-12-08T00:57:42.110Z,4.90
2022-12-08T01:00:10.031Z,5.72
2022-12-08T01:02:37.346Z,5.45
2022-12-08T01:05:05.144Z,6.15
2022-12-08T01:07:32.509Z,5.47
2022-12-08T01:10:00.114Z,5.78
2022-12-08T01:12:29.151Z,6.18
2022-12-08T01:15:00.722Z,6.60
2022-12-08T01:17:29.743Z,5.47
2022-12-08T01:19:57.365Z,6.07
2022-12-08T01:22:24.864Z,5.47
2022-12-08T01:24:52.449Z,5.38
2022-12-08T01:27:19.807Z,5.07
2022-12-08T01:29:47.458Z,5.53
2022-12-08T01:32:14.765Z,4.75
2022-12-08T01:34:42.537Z,5.55
2022-12-08T01:37:20.253Z,5.28
2022-12-08T01:39:47.883Z,5.20
2022-12-08T01:42:19.339Z,5.40
2022-12-08T01:44:51.746Z,5.88
2022-12-08T01:47:19.115Z,5.45
2022-12-08T01:49:46.746Z,8.23
2022-12-08T01:55:38.490Z,5.30
2022-12-08T01:58:10.734Z,5.72
2022-12-08T02:00:38.103Z,5.45
2022-12-08T02:03:11.100Z,4.88
2022-12-08T02:05:39.780Z,5.45
2022-12-08T02:08:09.003Z,5.93
2022-12-08T02:10:37.666Z,5.55
2022-12-08T02:13:06.806Z,5.35
2022-12-08T02:15:42.591Z,4.82
2022-12-08T02:18:22.659Z,5.20
2022-12-08T02:20:50.217Z,6.07
2022-12-08T02:23:17.811Z,5.70
2022-12-08T02:26:00.268Z,5.00
2022-12-08T02:28:58.765Z,5.35
2022-12-08T02:32:04.421Z,6.30
2022-12-08T02:34:40.585Z,5.80
2022-12-08T02:37:29.397Z,4.95
2022-12-08T02:40:09.794Z,4.97
2022-12-08T02:42:55.512Z,4.90
2022-12-08T02:45:30.030Z,6.03
2022-12-08T02:47:58.591Z,4.45
2022-12-08T02:50:26.994Z,5.30
2022-12-08T02:52:54.453Z,5.32
2022-12-08T02:55:26.653Z,5.35
2022-12-08T02:58:05.041Z,5.25
2022-12-08T03:00:43.864Z,4.95
2022-12-08T03:09:41.849Z,5.22
2022-12-08T03:12:25.738Z,5.65
2022-12-08T03:14:54.258Z,4.80
2022-12-08T03:17:24.218Z,5.45
2022-12-08T03:19:52.348Z,5.47
2022-12-08T03:22:22.057Z,5.15
2022-12-08T03:24:49.431Z,4.72
2022-12-08T03:27:20.584Z,6.10
2022-12-08T03:29:48.885Z,5.65
2022-12-08T03:32:16.496Z,5.22
2022-12-08T03:34:45.649Z,6.32
2022-12-08T03:37:13.582Z,6.05
2022-12-08T03:39:40.891Z,5.68
2022-12-08T03:42:08.459Z,5.85
2022-12-08T03:44:35.768Z,6.50
2022-12-08T03:47:03.359Z,6.20
2022-12-08T03:49:30.807Z,5.18
2022-12-08T03:51:58.369Z,6.97
2022-12-08T03:54:25.707Z,6.40
2022-12-08T03:56:53.487Z,6.45
2022-12-08T03:59:20.837Z,6.18
2022-12-08T04:01:48.459Z,5.32
2022-12-08T04:04:15.852Z,6.20
2022-12-08T04:06:43.484Z,5.65
2022-12-08T04:09:10.848Z,6.28
2022-12-08T04:11:38.510Z,6.07
2022-12-08T04:14:05.816Z,5.85
2022-12-08T04:16:33.591Z,6.68
2022-12-08T04:19:01.070Z,6.38
2022-12-08T04:21:29.066Z,6.15
2022-12-08T04:24:01.104Z,5.35
2022-12-08T04:26:29.286Z,5.15
2022-12-08T04:28:56.752Z,6.47
2022-12-08T04:34:46.544Z,6.53
2022-12-08T04:37:14.267Z,6.72
2022-12-08T04:39:41.575Z,6.43
2022-12-08T04:42:09.170Z,6.97
2022-12-08T04:44:36.492Z,6.40
2022-12-08T04:47:04.232Z,6.43
2022-12-08T04:49:31.691Z,6.03
2022-12-08T04:51:59.309Z,7.35
2022-12-08T04:54:26.648Z,6.90
2022-12-08T04:56:54.276Z,7.25
2022-12-08T04:59:21.740Z,7.72
2022-12-08T05:01:49.509Z,7.90
2022-12-08T05:04:16.964Z,8.10
2022-12-08T05:06:44.627Z,7.60
2022-12-08T05:09:12.150Z,7.20
2022-12-08T05:11:43.916Z,8.48
2022-12-08T05:14:15.546Z,7.90
2022-12-08T05:16:43.301Z,8.73
2022-12-08T05:19:11.291Z,8.55
2022-12-08T05:21:39.252Z,8.48
2022-12-08T05:24:06.888Z,7.05
2022-12-08T05:26:34.525Z,7.93
2022-12-08T05:29:01.891Z,8.63
2022-12-08T05:31:29.573Z,8.57
2022-12-08T05:34:02.452Z,8.60
2022-12-08T05:36:30.743Z,7.97
2022-12-08T05:38:58.063Z,7.65
2022-12-08T05:41:25.612Z,7.93
2022-12-08T05:43:52.926Z,8.07
2022-12-08T05:46:20.556Z,7.88
2022-12-08T05:48:47.967Z,7.88
2022-12-08T05:51:20.283Z,7.03
2022-12-08T05:53:48.262Z,8.93
2022-12-08T05:56:15.922Z,7.57
2022-12-08T05:58:43.280Z,8.43
2022-12-08T06:01:27.101Z,8.73
2022-12-08T06:03:55.001Z,8.32
2022-12-08T06:06:22.631Z,8.80
2022-12-08T06:08:49.984Z,7.75
2022-12-08T06:11:21.772Z,8.45
2022-12-08T06:13:49.424Z,8.13
2022-12-08T06:16:17.686Z,8.77
2022-12-08T06:18:45.133Z,7.80
2022-12-08T06:21:13.312Z,8.98
2022-12-08T06:23:40.757Z,7.70
2022-12-08T06:26:12.816Z,8.02
2022-12-08T06:28:40.825Z,7.63
2022-12-08T06:31:10.496Z,7.63
2022-12-08T06:33:38.097Z,7.95
2022-12-08T06:36:06.117Z,8.85
2022-12-08T06:38:33.575Z,8.35
2022-12-08T06:44:14.654Z,8.18
2022-12-08T06:46:42.286Z,6.70
2022-12-08T06:49:09.637Z,7.20
2022-12-08T06:51:37.270Z,7.03
2022-12-08T06:54:04.606Z,8.00
2022-12-08T06:56:32.288Z,7.40
2022-12-08T06:58:59.620Z,7.75
2022-12-08T07:01:37.315Z,7.28
2022-12-08T07:04:04.794Z,6.50
2022-12-08T07:06:32.460Z,8.18
2022-12-08T07:08:59.764Z,7.68
2022-12-08T07:11:27.491Z,7.95
2022-12-08T07:13:57.639Z,7.45
2022-12-08T07:16:47.641Z,7.38
2022-12-08T07:19:15.066Z,8.02
2022-12-08T07:24:56.262Z,7.07
2022-12-08T07:27:23.891Z,7.25
2022-12-08T07:29:51.248Z,7.07
2022-12-08T07:32:18.825Z,6.63
2022-12-08T07:34:47.249Z,8.18
2022-12-08T07:37:15.055Z,7.03
2022-12-08T07:39:42.420Z,6.38
2022-12-08T07:42:10.054Z,6.63
2022-12-08T07:44:37.461Z,6.57
2022-12-08T07:47:05.412Z,7.10
2022-12-08T07:49:32.839Z,6.50
2022-12-08T07:52:11.676Z,6.50
2022-12-08T07:54:38.962Z,6.55
2022-12-08T07:57:06.657Z,6.82
2022-12-08T07:59:40.305Z,7.15
2022-12-08T08:02:24.148Z,7.22
2022-12-08T08:04:52.575Z,7.18
2022-12-08T08:07:20.544Z,6.32
2022-12-08T08:09:47.872Z,6.55
2022-12-08T08:12:32.419Z,7.68
2022-12-08T08:15:00.890Z,6.90
2022-12-08T08:17:29.168Z,6.75
2022-12-08T08:19:56.756Z,7.75
2022-12-08T08:22:24.903Z,6.47
2022-12-08T08:24:52.408Z,6.72
2022-12-08T08:27:20.491Z,6.35
2022-12-08T08:29:47.989Z,6.75
2022-12-08T08:32:15.589Z,7.25
2022-12-08T08:34:42.950Z,6.47
2022-12-08T08:37:10.858Z,6.63
2022-12-08T08:39:38.289Z,6.80
2022-12-08T08:42:05.930Z,6.38
2022-12-08T08:44:33.258Z,7.22
2022-12-08T08:47:00.949Z,6.35
2022-12-08T08:49:28.398Z,6.47
2022-12-08T08:51:56.043Z,6.85
2022-12-08T08:54:23.375Z,6.38
2022-12-08T08:56:51.173Z,6.25
2022-12-08T08:59:18.655Z,6.90
2022-12-08T09:01:46.330Z,7.85
2022-12-08T09:04:13.742Z,6.15
2022-12-08T09:06:41.499Z,7.13
2022-12-08T09:09:08.952Z,5.30
2022-12-08T09:11:36.812Z,6.45
2022-12-08T09:14:04.233Z,5.00
2022-12-08T09:16:33.376Z,5.88
2022-12-08T09:19:03.797Z,6.47
2022-12-08T09:21:31.730Z,5.28
2022-12-08T09:23:59.124Z,5.35
2022-12-08T09:26:27.768Z,5.45
2022-12-08T09:28:56.390Z,5.07
2022-12-08T09:31:24.428Z,5.10
2022-12-08T09:33:52.334Z,5.22
2022-12-08T09:36:20.509Z,4.60
2022-12-08T09:38:48.048Z,4.90
2022-12-08T09:41:38.763Z,4.25
2022-12-08T09:44:10.971Z,4.43
2022-12-08T09:46:38.904Z,4.60
2022-12-08T09:49:11.524Z,4.30
2022-12-08T09:51:40.536Z,4.30
2022-12-08T09:54:11.756Z,4.80
2022-12-08T09:56:39.619Z,4.25
2022-12-08T09:59:25.309Z,5.47
2022-12-08T10:01:53.185Z,5.22
2022-12-08T10:04:25.569Z,4.90
2022-12-08T10:07:11.608Z,5.97
2022-12-08T10:09:38.923Z,5.18
2022-12-08T10:12:32.712Z,5.30
2022-12-08T10:15:18.864Z,5.28
2022-12-08T10:17:47.844Z,4.63
2022-12-08T10:20:16.427Z,4.25
2022-12-08T10:22:45.255Z,4.70
2022-12-08T10:25:17.654Z,4.82
2022-12-08T10:27:51.588Z,4.85
2022-12-08T10:30:20.042Z,4.28
2022-12-08T10:32:52.816Z,4.28
2022-12-08T10:35:22.010Z,4.93
2022-12-08T10:38:15.733Z,5.63
2022-12-08T10:40:45.769Z,5.75
2022-12-08T10:43:24.775Z,4.97
2022-12-08T10:45:52.530Z,6.07
2022-12-08T10:48:22.244Z,6.30
2022-12-08T10:50:52.337Z,5.30
2022-12-08T10:53:24.810Z,6.22
2022-12-08T10:55:53.732Z,6.15
2022-12-08T10:58:28.999Z,6.32
2022-12-08T11:00:58.687Z,5.75
2022-12-08T11:03:30.439Z,5.10
2022-12-08T11:06:00.755Z,5.45
2022-12-08T11:08:43.534Z,5.50
2022-12-08T11:11:11.505Z,6.18
2022-12-08T11:13:41.273Z,6.63
2022-12-08T11:16:11.088Z,6.10
2022-12-08T11:18:46.282Z,6.05
2022-12-08T11:21:15.121Z,6.10
2022-12-08T11:23:46.197Z,5.90
2022-12-08T11:26:32.005Z,5.88
2022-12-08T11:32:47.026Z,4.63
2022-12-08T11:35:24.209Z,5.32
2022-12-08T11:37:52.482Z,6.03
2022-12-08T11:40:31.597Z,5.35
2022-12-08T11:42:58.961Z,4.60
2022-12-08T11:45:28.155Z,4.60
2022-12-08T11:48:03.872Z,5.07
2022-12-08T11:50:51.722Z,4.90
2022-12-08T11:53:30.638Z,4.53
2022-12-08T11:56:00.465Z,5.00
2022-12-08T11:58:43.705Z,5.05
2022-12-08T12:01:18.304Z,4.82
2022-12-08T12:03:49.426Z,5.15
2022-12-08T12:06:38.286Z,5.27
2022-12-08T12:09:39.260Z,5.35
2022-12-08T12:12:25.389Z,4.97
2022-12-08T12:14:55.559Z,5.55
2022-12-08T12:17:23.118Z,5.28
2022-12-08T12:19:53.597Z,5.80
2022-12-08T12:22:22.807Z,5.25
2022-12-08T12:24:51.618Z,4.40
2022-12-08T12:27:25.020Z,4.70
2022-12-08T12:29:59.891Z,4.78
2022-12-08T12:32:39.576Z,4.25
2022-12-08T12:35:13.713Z,6.28
2022-12-08T12:37:42.405Z,6.40
2022-12-08T12:40:18.623Z,5.60
2022-12-08T12:42:46.232Z,5.78
2022-12-08T12:45:16.354Z,6.53
2022-12-08T12:47:54.297Z,5.80
2022-12-08T12:50:32.446Z,6.53
2022-12-08T12:53:00.150Z,6.20
2022-12-08T12:55:28.537Z,5.72
2022-12-08T12:57:59.136Z,5.75
2022-12-08T13:00:27.433Z,6.40
2022-12-08T13:02:56.691Z,6.20
2022-12-08T13:05:26.038Z,5.90
2022-12-08T13:07:53.751Z,5.60
2022-12-08T13:10:29.695Z,5.55
2022-12-08T13:13:05.297Z,4.65
2022-12-08T13:15:36.948Z,5.90
2022-12-08T13:18:05.546Z,5.00
2022-12-08T13:20:40.526Z,5.50
2022-12-08T13:23:26.667Z,4.65
2022-12-08T13:26:08.469Z,4.72
2022-12-08T13:28:56.091Z,5.28
2022-12-08T13:31:35.307Z,4.70
2022-12-08T13:34:06.537Z,5.40
2022-12-08T13:36:36.892Z,6.05
2022-12-08T13:39:05.850Z,5.45
2022-12-08T13:41:37.058Z,5.38
2022-12-08T13:47:37.107Z,4.68
2022-12-08T13:56:52.446Z,6.45
2022-12-08T13:58:48.491Z,6.40
2022-12-08T14:01:16.186Z,7.00
2022-12-08T14:07:36.608Z,7.97
2022-12-08T14:10:07.377Z,7.05
2022-12-08T14:16:14.651Z,6.95
2022-12-08T14:18:44.857Z,6.95
2022-12-08T14:21:20.823Z,6.32
2022-12-08T14:23:49.085Z,8.90
2022-12-08T14:26:16.422Z,8.02
2022-12-08T14:28:52.363Z,6.80
2022-12-08T14:31:19.774Z,8.50
2022-12-08T14:37:19.686Z,7.78
2022-12-08T14:39:47.963Z,9.45
2022-12-08T14:42:23.228Z,14.07
2022-12-08T14:44:58.934Z,9.98
2022-12-08T14:47:30.300Z,11.68
2022-12-08T14:49:58.051Z,11.43
2022-12-08T14:52:25.643Z,14.55
2022-12-08T14:54:53.976Z,11.90
2022-12-08T14:57:21.923Z,13.45
2022-12-08T14:59:49.727Z,15.30
2022-12-08T15:05:34.170Z,12.45
2022-12-08T15:08:02.743Z,12.32
2022-12-08T15:10:31.953Z,21.73
2022-12-08T15:13:04.462Z,30.73
2022-12-08T15:19:04.268Z,14.85
2022-12-08T15:21:37.737Z,13.98
2022-12-08T15:24:05.154Z,14.98
2022-12-08T15:26:37.885Z,14.07
2022-12-08T15:29:19.117Z,13.93
2022-12-08T15:31:50.036Z,12.50
2022-12-08T15:34:17.440Z,10.07
2022-12-08T15:36:45.568Z,11.13
2022-12-08T15:39:20.399Z,15.80
2022-12-08T15:41:47.976Z,22.92
2022-12-08T15:44:15.343Z,18.38
2022-12-08T15:46:44.587Z,15.95
2022-12-08T15:49:19.281Z,15.43
2022-12-08T15:51:47.119Z,13.25
2022-12-08T15:54:14.487Z,11.35
2022-12-08T15:57:18.484Z,12.82
2022-12-08T15:59:42.502Z,15.50
2022-12-08T16:02:12.620Z,15.60
2022-12-08T16:07:30.151Z,13.77
2022-12-08T16:09:57.675Z,14.63
2022-12-08T16:12:26.632Z,15.82
2022-12-08T16:17:41.740Z,13.25
2022-12-08T16:20:15.901Z,15.68
2022-12-08T16:22:59.719Z,14.98
2022-12-08T16:26:00.143Z,15.70
2022-12-08T16:28:52.961Z,14.10
2022-12-08T16:31:13.784Z,15.27
2022-12-08T16:33:42.690Z,15.20
2022-12-08T16:36:10.437Z,15.43
2022-12-08T16:38:38.057Z,14.55
2022-12-08T16:41:05.478Z,14.93
2022-12-08T16:43:33.692Z,13.95
2022-12-08T16:46:02.242Z,13.07
2022-12-08T16:48:30.105Z,14.07
2022-12-08T16:50:57.576Z,14.75
2022-12-08T16:53:25.263Z,13.50
2022-12-08T16:55:52.587Z,13.65
2022-12-08T16:58:20.970Z,13.70
2022-12-08T17:00:48.402Z,14.38
2022-12-08T17:03:17.619Z,14.57
2022-12-08T17:05:45.453Z,12.63
2022-12-08T17:08:13.443Z,12.32
2022-12-08T17:10:41.281Z,13.00
2022-12-08T17:13:09.034Z,12.73
2022-12-08T17:15:36.534Z,13.32
2022-12-08T17:18:04.201Z,14.32
2022-12-08T17:20:31.553Z,12.70
2022-12-08T17:22:59.225Z,12.60
2022-12-08T17:25:28.856Z,12.27
2022-12-08T17:27:56.517Z,15.18
2022-12-08T17:30:23.962Z,13.82
2022-12-08T17:32:51.624Z,14.70
2022-12-08T17:35:19.233Z,11.48
2022-12-08T17:37:47.080Z,13.85
2022-12-08T17:40:14.409Z,13.52
2022-12-08T17:42:42.060Z,12.95
2022-12-08T17:45:09.615Z,11.18
2022-12-08T17:47:37.736Z,12.82
2022-12-08T17:50:07.737Z,13.68
2022-12-08T17:52:35.634Z,15.55
2022-12-08T17:55:03.011Z,14.80
2022-12-08T17:57:30.988Z,12.95
2022-12-08T17:59:58.295Z,13.50
2022-12-08T18:02:26.009Z,13.45
2022-12-08T18:04:53.392Z,13.63
2022-12-08T18:07:20.989Z,13.30
2022-12-08T18:09:48.286Z,13.00
2022-12-08T18:12:20.729Z,12.85
2022-12-08T18:14:50.746Z,12.43
2022-12-08T18:17:18.509Z,10.85
2022-12-08T18:19:46.034Z,13.02
2022-12-08T18:22:13.703Z,12.57
2022-12-08T18:24:41.093Z,13.27
2022-12-08T18:27:08.693Z,14.07
2022-12-08T18:29:36.047Z,14.52
2022-12-08T18:32:03.801Z,14.55
2022-12-08T18:34:31.181Z,15.90
2022-12-08T18:36:58.817Z,14.50
2022-12-08T18:39:30.846Z,15.40
2022-12-08T18:44:25.595Z,15.02
2022-12-08T18:46:53.267Z,16.73
2022-12-08T18:49:20.660Z,16.48
2022-12-08T18:51:48.391Z,16.45
2022-12-08T18:54:15.775Z,15.45
2022-12-08T18:56:43.418Z,14.50
2022-12-08T18:59:12.005Z,15.23
2022-12-08T19:01:40.568Z,15.35
2022-12-08T19:06:56.428Z,14.90
2022-12-08T19:09:23.908Z,13.32
2022-12-08T19:11:51.499Z,12.80
2022-12-08T19:14:22.692Z,14.70
2022-12-08T19:16:53.497Z,14.93
2022-12-08T19:19:20.826Z,13.48
2022-12-08T19:21:48.473Z,14.35
2022-12-08T19:24:15.903Z,15.40
2022-12-08T19:26:43.691Z,14.05
2022-12-08T19:29:29.381Z,14.93
2022-12-08T19:31:57.060Z,13.05
2022-12-08T19:34:24.449Z,14.30
2022-12-08T19:36:52.080Z,13.13
2022-12-08T19:39:20.645Z,12.77
2022-12-08T19:41:48.351Z,12.85
2022-12-08T19:44:17.218Z,12.45
2022-12-08T19:46:44.919Z,12.77
2022-12-08T19:49:12.393Z,14.23
2022-12-08T19:51:40.101Z,11.68
2022-12-08T19:54:07.439Z,13.23
2022-12-08T19:56:35.190Z,11.90
2022-12-08T19:59:02.593Z,14.50
2022-12-08T20:01:30.292Z,12.70
2022-12-08T20:03:57.635Z,11.93
2022-12-08T20:06:26.208Z,12.25
2022-12-08T20:08:53.586Z,11.57
2022-12-08T20:11:21.477Z,12.98
2022-12-08T20:13:54.642Z,11.73
2022-12-08T20:16:22.383Z,13.38
2022-12-08T20:18:50.239Z,13.15
2022-12-08T20:21:17.913Z,12.98
2022-12-08T20:23:49.563Z,11.38
2022-12-08T20:29:49.585Z,11.52
2022-12-08T20:32:17.190Z,11.40
2022-12-08T20:34:44.545Z,9.82
2022-12-08T20:40:34.154Z,10.73
2022-12-08T20:43:01.837Z,10.57
2022-12-08T20:45:29.224Z,12.18
2022-12-08T20:47:56.879Z,12.00
2022-12-08T20:50:24.438Z,9.70
2022-12-08T20:52:52.135Z,11.73
2022-12-08T20:55:19.631Z,9.70
2022-12-08T20:57:47.388Z,11.23
2022-12-08T21:00:14.845Z,10.60
2022-12-08T21:02:48.586Z,10.40
2022-12-08T21:05:16.387Z,10.57
2022-12-08T21:07:44.234Z,11.75
2022-12-08T21:10:12.332Z,10.13
2022-12-08T21:12:40.231Z,10.77
2022-12-08T21:15:08.143Z,11.65
2022-12-08T21:17:35.839Z,10.48
2022-12-08T21:20:03.719Z,10.40
2022-12-08T21:22:31.833Z,10.95
2022-12-08T21:24:59.190Z,10.35
2022-12-08T21:27:27.012Z,10.55
2022-12-08T21:29:54.697Z,11.50
2022-12-08T21:32:28.652Z,10.63
2022-12-08T21:34:57.674Z,9.80
2022-12-08T21:37:25.316Z,11.00
2022-12-08T21:39:52.911Z,10.75
2022-12-08T21:42:22.832Z,10.60
2022-12-08T21:44:50.850Z,10.02
2022-12-08T21:47:18.697Z,11.10
2022-12-08T21:49:46.188Z,10.57
2022-12-08T21:52:13.916Z,12.07
2022-12-08T21:54:41.497Z,11.63
2022-12-08T21:57:09.316Z,11.20
2022-12-08T21:59:36.886Z,10.48
2022-12-08T22:02:04.835Z,10.38
2022-12-08T22:08:04.583Z,12.45
2022-12-08T22:10:32.519Z,10.70
2022-12-08T22:13:00.218Z,12.63
2022-12-08T22:15:28.084Z,11.60
2022-12-08T22:21:17.739Z,13.60
2022-12-08T22:23:45.335Z,13.30
2022-12-08T22:26:12.770Z,12.07
2022-12-08T22:28:41.115Z,13.07
2022-12-08T22:31:12.246Z,12.98
2022-12-08T22:33:40.262Z,11.63
2022-12-08T22:36:10.954Z,11.50
2022-12-08T22:38:38.824Z,11.10
2022-12-08T22:41:06.961Z,12.60
2022-12-08T22:43:35.142Z,11.77
2022-12-08T22:46:11.510Z,11.63
2022-12-08T22:48:39.557Z,11.93
2022-12-08T22:51:06.935Z,11.82
2022-12-08T22:53:34.669Z,12.30
2022-12-08T22:56:05.620Z,12.75
2022-12-08T22:58:33.426Z,11.85
2022-12-08T23:01:00.970Z,11.00
2022-12-08T23:03:28.775Z,12.43
2022-12-08T23:05:56.265Z,11.77
2022-12-08T23:08:24.365Z,12.18
2022-12-08T23:10:52.808Z,11.65
2022-12-08T23:13:21.074Z,12.13
2022-12-08T23:15:48.601Z,12.48
2022-12-08T23:18:17.512Z,13.05
2022-12-08T23:20:47.750Z,12.88
2022-12-08T23:23:15.547Z,12.07
2022-12-08T23:25:43.321Z,12.43
2022-12-08T23:28:11.381Z,12.98
2022-12-08T23:30:41.975Z,12.68
2022-12-08T23:33:09.889Z,12.07
2022-12-08T23:35:37.626Z,14.35
2022-12-08T23:38:05.494Z,11.50
2022-12-08T23:40:32.859Z,12.82
2022-12-08T23:43:00.721Z,12.00
2022-12-08T23:45:28.133Z,11.45
2022-12-08T23:47:55.979Z,11.77
2022-12-08T23:50:23.535Z,12.85
2022-12-08T23:52:51.366Z,12.95
2022-12-08T23:55:18.722Z,12.73
2022-12-08T23:57:46.370Z,13.20
